Time;durP1;ratioP1;P1;durP2;ratioP2;P2;SDS_P1;SDS_P2;PMS_P1;PMS_P2;Temp;Humidity;BMP_temperature;BMP_pressure;BME280_temperature;BME280_humidity;BME280_pressure;Samples;Min_cycle;Max_cycle;Signal;HPM_P1;HPM_P2
2021/08/08 00:00:23;;;;;;;;;2.00;1.00;;;;;17.32;100.00;100640.84;5118568;27;45248;-67
2021/08/08 00:02:49;;;;;;;;;3.00;2.00;;;;;17.31;100.00;100646.19;5118573;27;45468;-67
2021/08/08 00:05:14;;;;;;;;;2.00;2.00;;;;;17.23;100.00;100643.03;5118544;27;45444;-66
2021/08/08 00:07:41;;;;;;;;;1.25;1.25;;;;;17.26;100.00;100658.72;5118048;27;46743;-66
2021/08/08 00:13:28;;;;;;;;;3.50;1.50;;;;;17.19;100.00;100651.97;5116481;27;45417;-66
2021/08/08 00:15:53;;;;;;;;;2.75;2.00;;;;;17.19;100.00;100657.25;5118402;27;45411;-66
2021/08/08 00:18:19;;;;;;;;;3.00;1.75;;;;;17.15;100.00;100656.53;5118043;27;46368;-67
2021/08/08 00:20:45;;;;;;;;;1.50;1.00;;;;;17.13;100.00;100661.00;5118344;27;45458;-68
2021/08/08 00:23:10;;;;;;;;;1.25;1.25;;;;;17.13;100.00;100663.66;5118309;27;45242;-66
2021/08/08 00:25:36;;;;;;;;;2.50;2.00;;;;;17.12;100.00;100664.56;5118594;27;45271;-67
2021/08/08 00:28:04;;;;;;;;;4.00;2.00;;;;;17.09;100.00;100655.00;5118080;27;45253;-67
2021/08/08 00:30:29;;;;;;;;;1.50;1.00;;;;;17.10;100.00;100666.44;5117651;27;45688;-66
2021/08/08 00:32:54;;;;;;;;;3.00;1.25;;;;;17.08;100.00;100663.00;5117982;27;45358;-67
2021/08/08 00:35:20;;;;;;;;;3.00;2.00;;;;;17.07;100.00;100664.78;5118038;27;45494;-68
2021/08/08 00:37:48;;;;;;;;;3.25;3.00;;;;;17.06;100.00;100664.84;5118001;27;45344;-68
2021/08/08 00:43:35;;;;;;;;;3.00;2.00;;;;;16.98;100.00;100654.63;5117835;27;45362;-68
2021/08/08 00:46:00;;;;;;;;;1.75;1.00;;;;;16.99;100.00;100660.75;5118092;27;45326;-68
2021/08/08 00:48:25;;;;;;;;;2.25;2.00;;;;;16.96;100.00;100658.22;5117512;27;46557;-68
2021/08/08 00:50:51;;;;;;;;;3.00;2.00;;;;;16.94;100.00;100654.78;5117762;27;45283;-68
2021/08/08 00:56:38;;;;;;;;;3.00;2.00;;;;;16.86;100.00;100665.66;5117839;27;45315;-68
2021/08/08 00:59:05;;;;;;;;;3.00;2.00;;;;;16.86;100.00;100664.81;5117731;27;45597;-68
2021/08/08 01:01:39;;;;;;;;;3.00;2.00;;;;;16.88;100.00;100676.16;5117378;27;45320;-68
2021/08/08 01:04:11;;;;;;;;;2.00;1.00;;;;;16.81;100.00;100660.59;5117876;27;45330;-68
2021/08/08 01:06:51;;;;;;;;;2.00;2.00;;;;;16.83;100.00;100677.22;5117675;27;45495;-66
2021/08/08 01:12:39;;;;;;;;;2.25;2.00;;;;;16.78;100.00;100665.16;5120740;27;45575;-66
2021/08/08 01:15:08;;;;;;;;;1.75;1.50;;;;;16.75;100.00;100673.19;5120865;27;45336;-66
2021/08/08 01:17:37;;;;;;;;;2.50;1.75;;;;;16.75;100.00;100674.03;5121228;27;45453;-66
2021/08/08 01:20:09;;;;;;;;;2.75;2.75;;;;;16.75;100.00;100665.28;5120627;27;46892;-67
2021/08/08 01:22:38;;;;;;;;;2.75;2.00;;;;;16.70;100.00;100668.06;5120671;27;45670;-66
2021/08/08 01:28:28;;;;;;;;;3.00;3.00;;;;;16.70;100.00;100675.97;5120939;27;45354;-67
2021/08/08 01:30:53;;;;;;;;;2.00;1.00;;;;;16.65;100.00;100670.00;5120316;27;45590;-67
2021/08/08 01:33:18;;;;;;;;;3.75;2.50;;;;;16.70;100.00;100683.03;5120598;27;45414;-67
2021/08/08 01:35:44;;;;;;;;;3.00;3.00;;;;;16.67;100.00;100672.63;5120866;27;45354;-67
2021/08/08 01:38:09;;;;;;;;;3.25;3.00;;;;;16.68;100.00;100672.56;5120961;27;45318;-67
2021/08/08 01:43:58;;;;;;;;;6.75;4.75;;;;;16.78;100.00;100681.81;5120433;27;45535;-67
2021/08/08 01:46:26;;;;;;;;;2.00;2.00;;;;;16.74;100.00;100681.97;5120770;27;45372;-67
2021/08/08 01:48:54;;;;;;;;;2.25;2.25;;;;;16.79;100.00;100685.31;5120801;27;45325;-67
2021/08/08 01:51:21;;;;;;;;;4.75;2.75;;;;;16.75;100.00;100683.72;5120477;27;46111;-67
2021/08/08 01:53:47;;;;;;;;;2.50;1.50;;;;;16.78;100.00;100689.72;5101615;27;45563;-67
2021/08/08 01:56:13;;;;;;;;;2.00;2.00;;;;;16.77;100.00;100690.66;5120669;27;45326;-66
2021/08/08 01:58:39;;;;;;;;;2.50;2.50;;;;;16.67;100.00;100662.06;5120498;27;45428;-66
2021/08/08 02:01:04;;;;;;;;;2.00;2.00;;;;;16.77;100.00;100682.75;5120194;27;46237;-67
2021/08/08 02:03:34;;;;;;;;;4.25;2.00;;;;;16.75;100.00;100687.22;5120232;27;45450;-67
2021/08/08 02:06:01;;;;;;;;;3.00;2.00;;;;;16.76;100.00;100685.44;5120185;27;45333;-67
2021/08/08 02:08:26;;;;;;;;;4.00;3.00;;;;;16.79;100.00;100688.81;5120300;27;45400;-66
2021/08/08 02:14:13;;;;;;;;;4.25;3.50;;;;;16.69;100.00;100679.53;5118660;27;45407;-68
2021/08/08 02:16:38;;;;;;;;;1.50;1.50;;;;;16.75;100.00;100696.91;5120218;27;45256;-67
2021/08/08 02:19:04;;;;;;;;;3.00;3.00;;;;;16.74;100.00;100701.28;5120390;27;45338;-68
2021/08/08 02:21:30;;;;;;;;;2.00;2.00;;;;;16.56;100.00;100659.00;5119520;27;46298;-67
2021/08/08 02:23:55;;;;;;;;;2.00;2.00;;;;;16.68;100.00;100687.50;5119681;27;45513;-68
2021/08/08 02:26:21;;;;;;;;;2.00;1.75;;;;;16.73;100.00;100696.09;5119910;27;45221;-68
2021/08/08 02:28:46;;;;;;;;;3.00;2.50;;;;;16.71;100.00;100696.16;5120227;27;45350;-67
2021/08/08 02:31:13;;;;;;;;;3.25;3.00;;;;;16.70;100.00;100697.06;5119458;27;46411;-68
2021/08/08 02:33:38;;;;;;;;;4.00;3.00;;;;;16.67;100.00;100699.84;5119927;27;45354;-67
2021/08/08 02:36:04;;;;;;;;;6.00;3.00;;;;;16.66;100.00;100703.38;5119999;27;45325;-67
2021/08/08 02:38:30;;;;;;;;;3.00;3.00;;;;;16.69;100.00;100708.53;5119825;27;45422;-67
2021/08/08 02:44:17;;;;;;;;;3.00;3.00;;;;;16.60;100.00;100697.47;5119293;27;45350;-66
2021/08/08 02:46:42;;;;;;;;;3.00;2.00;;;;;16.55;100.00;100702.94;5119413;27;45393;-66
2021/08/08 02:49:07;;;;;;;;;1.00;1.00;;;;;16.48;100.00;100706.72;5119422;27;45318;-67
2021/08/08 02:51:36;;;;;;;;;2.00;2.00;;;;;16.48;100.00;100715.47;5119354;27;46156;-67
2021/08/08 02:54:01;;;;;;;;;3.00;2.00;;;;;16.47;100.00;100720.81;5118992;27;45659;-67
2021/08/08 02:56:26;;;;;;;;;3.75;3.00;;;;;16.43;100.00;100724.50;5119175;27;45420;-67
2021/08/08 02:58:52;;;;;;;;;3.50;2.25;;;;;16.45;100.00;100725.28;5119350;27;45493;-67
2021/08/08 03:01:17;;;;;;;;;2.75;2.50;;;;;16.43;100.00;100730.63;5100546;27;47432;-67
2021/08/08 03:03:42;;;;;;;;;3.00;3.00;;;;;16.40;100.00;100728.09;5119181;27;45389;-67
2021/08/08 03:06:12;;;;;;;;;2.75;2.00;;;;;16.19;100.00;100698.16;5119155;27;45499;-67
2021/08/08 03:08:39;;;;;;;;;2.50;2.50;;;;;16.40;100.00;100729.88;5119265;27;45501;-66
2021/08/08 03:14:26;;;;;;;;;3.50;3.25;;;;;16.20;100.00;100715.69;5118680;27;45545;-67
2021/08/08 03:16:51;;;;;;;;;3.00;2.50;;;;;16.36;100.00;100736.19;5119014;27;45275;-67
2021/08/08 03:19:17;;;;;;;;;4.00;3.50;;;;;16.38;100.00;100734.34;5119220;27;45504;-67
2021/08/08 03:21:43;;;;;;;;;3.25;3.00;;;;;16.34;100.00;100731.00;5118666;27;47016;-67
2021/08/08 03:24:09;;;;;;;;;4.75;3.00;;;;;16.40;100.00;100733.38;5118716;27;45753;-67
2021/08/08 03:26:34;;;;;;;;;5.25;4.00;;;;;16.38;100.00;100737.00;5119176;27;45467;-66
2021/08/08 03:29:00;;;;;;;;;4.00;3.00;;;;;16.38;100.00;100739.63;5118980;27;45405;-67
2021/08/08 03:31:27;;;;;;;;;4.00;3.00;;;;;16.33;100.00;100731.91;5117464;27;46452;-67
2021/08/08 03:33:55;;;;;;;;;2.00;2.00;;;;;16.26;100.00;100730.41;5118632;27;45477;-67
2021/08/08 03:36:22;;;;;;;;;5.50;4.00;;;;;16.35;100.00;100748.50;5118762;27;45326;-67
2021/08/08 03:38:48;;;;;;;;;3.00;3.00;;;;;16.33;100.00;100746.84;5119168;27;45365;-66
2021/08/08 03:44:35;;;;;;;;;1.75;0.75;;;;;16.32;100.00;100755.69;5118448;27;45362;-67
2021/08/08 03:47:01;;;;;;;;;3.00;3.00;;;;;16.25;100.00;100747.13;5118513;27;45335;-66
2021/08/08 03:49:26;;;;;;;;;3.75;3.50;;;;;16.24;100.00;100754.16;5119048;27;45224;-66
2021/08/08 03:51:51;;;;;;;;;4.25;3.00;;;;;16.22;100.00;100749.88;5118280;27;46343;-66
2021/08/08 03:54:17;;;;;;;;;5.50;3.25;;;;;16.23;100.00;100752.44;5118637;27;45397;-67
2021/08/08 03:56:42;;;;;;;;;3.50;3.25;;;;;16.26;100.00;100753.25;5118349;27;45437;-67
2021/08/08 03:59:10;;;;;;;;;6.00;4.00;;;;;16.17;100.00;100736.03;5118927;27;45330;-68
2021/08/08 04:01:36;;;;;;;;;2.75;2.75;;;;;16.20;100.00;100749.94;5099767;27;48115;-68
2021/08/08 04:04:02;;;;;;;;;5.50;3.25;;;;;16.20;100.00;100756.97;5118174;27;45350;-68
2021/08/08 04:06:28;;;;;;;;;3.25;2.25;;;;;16.18;100.00;100754.41;5118430;27;45266;-67
2021/08/08 04:08:59;;;;;;;;;3.00;3.00;;;;;16.14;100.00;100765.13;5118492;27;45425;-68
2021/08/08 04:14:45;;;;;;;;;3.25;2.75;;;;;16.22;100.00;100782.34;5117521;27;45549;-67
2021/08/08 04:17:11;;;;;;;;;5.50;3.00;;;;;16.20;100.00;100773.66;5118601;27;45231;-67
2021/08/08 04:19:36;;;;;;;;;4.50;3.25;;;;;16.02;100.00;100742.72;5118334;27;45455;-67
2021/08/08 04:22:02;;;;;;;;;4.50;3.00;;;;;16.23;100.00;100780.56;5117900;27;47226;-68
2021/08/08 04:24:28;;;;;;;;;5.25;4.00;;;;;16.24;100.00;100779.66;5117893;27;45397;-67
2021/08/08 04:26:54;;;;;;;;;4.00;3.25;;;;;16.23;100.00;100783.22;5118110;27;45311;-67
2021/08/08 04:29:21;;;;;;;;;4.00;3.00;;;;;16.28;100.00;100793.56;5118126;27;45337;-68
2021/08/08 04:31:46;;;;;;;;;5.00;3.50;;;;;16.20;100.00;100785.97;5117685;27;45402;-68
2021/08/08 04:34:12;;;;;;;;;3.25;3.00;;;;;16.23;100.00;100797.25;5117808;27;45382;-67
2021/08/08 04:36:37;;;;;;;;;3.50;3.25;;;;;16.18;100.00;100787.78;5118160;27;45300;-67
2021/08/08 04:39:02;;;;;;;;;5.50;3.50;;;;;16.00;100.00;100757.72;5118337;27;45256;-67
2021/08/08 04:44:49;;;;;;;;;4.75;3.25;;;;;16.15;100.00;100795.81;5121236;27;45553;-67
2021/08/08 04:47:15;;;;;;;;;3.00;3.00;;;;;16.09;100.00;100785.50;5121657;27;45330;-67
2021/08/08 04:49:40;;;;;;;;;4.00;3.00;;;;;16.06;100.00;100778.53;5121399;27;45543;-67
2021/08/08 04:52:06;;;;;;;;;4.50;4.00;;;;;16.10;100.00;100798.63;5121016;27;47418;-67
2021/08/08 04:54:31;;;;;;;;;6.25;4.50;;;;;16.10;100.00;100795.97;5121089;27;45410;-67
2021/08/08 04:56:56;;;;;;;;;3.00;2.50;;;;;16.09;100.00;100798.69;5121332;27;45354;-67
2021/08/08 04:59:22;;;;;;;;;3.00;2.00;;;;;16.03;100.00;100789.19;5121387;27;45417;-68
2021/08/08 05:01:47;;;;;;;;;3.00;2.75;;;;;16.06;100.00;100796.97;5120993;27;46398;-67
2021/08/08 05:04:12;;;;;;;;;5.75;3.25;;;;;16.07;100.00;100798.72;5121006;27;45324;-67
2021/08/08 05:06:38;;;;;;;;;4.50;3.50;;;;;16.03;100.00;100791.84;5120951;27;45231;-68
2021/08/08 05:09:04;;;;;;;;;3.00;2.00;;;;;16.12;100.00;100802.06;5121228;27;45436;-67
2021/08/08 05:14:51;;;;;;;;;2.50;2.50;;;;;16.14;100.00;100809.91;5120284;27;45649;-66
2021/08/08 05:17:16;;;;;;;;;4.50;4.00;;;;;16.13;100.00;100797.66;5121201;27;45460;-67
2021/08/08 05:19:41;;;;;;;;;6.75;4.50;;;;;16.15;100.00;100801.94;5121023;27;45306;-66
2021/08/08 05:22:07;;;;;;;;;2.75;2.50;;;;;16.16;100.00;100806.28;5120971;27;46231;-67
2021/08/08 05:24:32;;;;;;;;;2.75;2.25;;;;;16.17;100.00;100801.88;5120892;27;45315;-67
2021/08/08 05:30:19;;;;;;;;;3.50;3.25;;;;;16.32;100.00;100803.09;5120815;27;45365;-66
2021/08/08 05:32:44;;;;;;;;;4.50;3.00;;;;;16.36;100.00;100804.69;5120347;27;46102;-67
2021/08/08 05:35:10;;;;;;;;;4.00;3.00;;;;;16.36;100.00;100788.91;5120810;27;45341;-68
2021/08/08 05:37:36;;;;;;;;;4.75;3.00;;;;;16.38;100.00;100781.78;5120897;27;45444;-66
2021/08/08 05:40:07;;;;;;;;;4.25;4.00;;;;;16.49;100.00;100800.69;5120917;27;45413;-67
2021/08/08 05:42:36;;;;;;;;;3.25;2.75;;;;;16.53;100.00;100797.91;5120287;27;46537;-67
2021/08/08 05:45:04;;;;;;;;;3.00;2.00;;;;;16.57;100.00;100793.34;5120258;27;45635;-68
2021/08/08 05:47:29;;;;;;;;;6.75;4.75;;;;;16.64;100.00;100805.38;5120459;27;45246;-67
2021/08/08 05:49:55;;;;;;;;;4.00;3.00;;;;;16.66;100.00;100802.69;5120785;27;45213;-68
2021/08/08 05:52:26;;;;;;;;;5.00;3.50;;;;;16.70;100.00;100799.91;5120205;27;46997;-67
2021/08/08 05:54:51;;;;;;;;;2.75;2.50;;;;;16.76;100.00;100804.09;5119245;27;45675;-68
2021/08/08 05:57:16;;;;;;;;;4.25;3.50;;;;;16.84;100.00;100802.88;5120439;27;45268;-68
2021/08/08 05:59:42;;;;;;;;;3.50;2.75;;;;;16.88;100.00;100815.94;5120381;27;45332;-67
2021/08/08 06:02:10;;;;;;;;;4.50;3.00;;;;;16.89;100.00;100807.94;5119789;27;46507;-67
2021/08/08 06:04:36;;;;;;;;;3.25;3.25;;;;;16.92;100.00;100809.59;5120265;27;45263;-67
2021/08/08 06:07:01;;;;;;;;;4.00;3.00;;;;;16.94;100.00;100818.31;5101725;27;45408;-67
2021/08/08 06:09:27;;;;;;;;;4.00;3.00;;;;;16.93;100.00;100813.97;5120136;27;45437;-67
2021/08/08 06:15:13;;;;;;;;;3.75;3.00;;;;;17.04;100.00;100822.31;5119151;27;45571;-67
2021/08/08 06:17:39;;;;;;;;;5.00;3.00;;;;;17.09;100.00;100821.22;5120316;27;45397;-69
2021/08/08 06:20:05;;;;;;;;;3.00;3.00;;;;;17.14;100.00;100827.16;5120152;27;45420;-67
2021/08/08 06:22:30;;;;;;;;;5.00;3.00;;;;;17.11;100.00;100821.16;5120025;27;46272;-66
2021/08/08 06:24:55;;;;;;;;;1.75;1.75;;;;;17.11;100.00;100805.31;5119897;27;45324;-67
2021/08/08 06:27:21;;;;;;;;;4.00;2.50;;;;;17.15;100.00;100812.19;5119985;27;45266;-68
2021/08/08 06:29:46;;;;;;;;;3.00;2.25;;;;;17.11;100.00;100810.59;5120158;27;45251;-67
2021/08/08 06:32:14;;;;;;;;;5.00;3.00;;;;;17.12;100.00;100828.16;5119719;27;45488;-68
2021/08/08 06:34:43;;;;;;;;;3.00;2.75;;;;;17.19;100.00;100832.25;5119528;27;45710;-67
2021/08/08 06:37:11;;;;;;;;;4.00;3.25;;;;;17.19;100.00;100841.94;5119970;27;45285;-67
2021/08/08 06:39:36;;;;;;;;;3.00;3.00;;;;;17.05;100.00;100822.25;5119741;27;45311;-67
2021/08/08 06:45:24;;;;;;;;;2.00;2.00;;;;;17.21;100.00;100845.41;5119312;27;45282;-69
2021/08/08 06:47:49;;;;;;;;;3.25;3.00;;;;;17.33;100.00;100843.13;5119410;27;45579;-68
2021/08/08 06:50:14;;;;;;;;;5.25;4.00;;;;;17.42;100.00;100842.72;5119576;27;45371;-68
2021/08/08 06:52:40;;;;;;;;;3.00;3.00;;;;;17.45;100.00;100845.28;5101088;27;46141;-68
2021/08/08 06:55:05;;;;;;;;;4.75;3.00;;;;;17.51;100.00;100851.22;5119137;27;45225;-68
2021/08/08 06:57:31;;;;;;;;;2.75;2.75;;;;;17.50;100.00;100854.78;5119332;27;45322;-67
2021/08/08 06:59:56;;;;;;;;;3.00;2.00;;;;;17.53;100.00;100841.44;5119416;27;45312;-67
2021/08/08 07:02:21;;;;;;;;;3.00;3.00;;;;;17.59;100.00;100852.59;5119014;27;47198;-68
2021/08/08 07:04:48;;;;;;;;;4.00;4.00;;;;;17.63;100.00;100841.00;5119221;27;45273;-68
2021/08/08 07:07:15;;;;;;;;;3.00;3.00;;;;;17.70;100.00;100860.13;5119424;27;45361;-67
2021/08/08 07:09:41;;;;;;;;;6.00;3.75;;;;;17.69;100.00;100869.84;5119537;27;45489;-67
2021/08/08 07:15:27;;;;;;;;;5.50;5.00;;;;;17.84;100.00;100880.66;5118360;27;45661;-68
2021/08/08 07:17:53;;;;;;;;;4.00;3.25;;;;;17.91;100.00;100882.16;5118985;27;45460;-66
2021/08/08 07:20:18;;;;;;;;;5.75;4.00;;;;;17.98;100.00;100873.03;5119402;27;45389;-67
2021/08/08 07:22:46;;;;;;;;;5.00;4.00;;;;;18.10;100.00;100876.91;5118932;27;45455;-66
2021/08/08 07:25:12;;;;;;;;;3.75;2.25;;;;;18.19;100.00;100873.88;5118925;27;45577;-67
2021/08/08 07:27:38;;;;;;;;;3.00;2.00;;;;;18.28;100.00;100876.09;5119104;27;45348;-67
2021/08/08 07:30:07;;;;;;;;;2.00;2.00;;;;;18.44;100.00;100878.94;5119208;27;45262;-67
2021/08/08 07:32:34;;;;;;;;;3.00;3.00;;;;;18.50;100.00;100879.53;5118870;27;45538;-70
2021/08/08 07:35:01;;;;;;;;;4.00;3.00;;;;;18.51;100.00;100878.59;5118838;27;45347;-69
2021/08/08 07:37:26;;;;;;;;;3.00;3.00;;;;;18.60;100.00;100888.78;5118754;27;45405;-69
2021/08/08 07:39:51;;;;;;;;;5.00;4.00;;;;;18.62;100.00;100886.06;5118764;27;45421;-69
2021/08/08 07:45:39;;;;;;;;;3.25;3.00;;;;;18.50;100.00;100895.38;5118364;27;45381;-68
2021/08/08 07:48:05;;;;;;;;;4.00;2.25;;;;;18.47;100.00;100898.16;5118637;27;45364;-68
2021/08/08 07:50:31;;;;;;;;;4.25;3.25;;;;;18.45;100.00;100894.75;5118754;27;45426;-68
2021/08/08 07:52:56;;;;;;;;;3.00;3.00;;;;;18.43;100.00;100890.44;5118543;27;45471;-68
2021/08/08 07:55:24;;;;;;;;;4.00;2.00;;;;;18.54;100.00;100898.75;5118618;27;45337;-69
2021/08/08 07:57:50;;;;;;;;;4.50;4.00;;;;;18.48;100.00;100893.75;5118745;27;45299;-69
2021/08/08 08:00:18;;;;;;;;;3.00;2.75;;;;;18.43;100.00;100895.72;5118849;27;45290;-70
2021/08/08 08:02:44;;;;;;;;;3.50;3.50;;;;;18.51;100.00;100915.59;5118278;27;45547;-67
2021/08/08 08:05:10;;;;;;;;;3.00;3.00;;;;;18.51;100.00;100928.81;5118438;27;45409;-67
2021/08/08 08:07:35;;;;;;;;;4.00;3.00;;;;;18.44;100.00;100922.09;5118160;27;45392;-68
2021/08/08 08:10:00;;;;;;;;;7.00;4.00;;;;;18.44;100.00;100930.03;5118326;27;45348;-67
2021/08/08 08:15:47;;;;;;;;;4.50;3.25;;;;;18.56;100.00;100923.38;5116946;27;45494;-67
2021/08/08 08:18:13;;;;;;;;;4.00;4.00;;;;;18.57;100.00;100919.78;5100372;27;45321;-68
2021/08/08 08:20:39;;;;;;;;;4.00;3.00;;;;;18.73;100.00;100946.44;5121450;27;45369;-66
2021/08/08 08:23:04;;;;;;;;;5.00;4.00;;;;;18.81;100.00;100942.53;5121445;27;46095;-70
2021/08/08 08:25:30;;;;;;;;;2.50;2.50;;;;;18.95;100.00;100936.59;5121529;27;45344;-68
2021/08/08 08:27:58;;;;;;;;;5.00;4.00;;;;;19.07;100.00;100941.34;5121724;27;45478;-67
2021/08/08 08:30:26;;;;;;;;;6.50;4.00;;;;;19.17;100.00;100936.47;5121743;27;45579;-67
2021/08/08 08:32:54;;;;;;;;;6.25;4.00;;;;;19.28;100.00;100932.41;5121324;27;45422;-66
2021/08/08 08:35:20;;;;;;;;;2.50;2.50;;;;;19.45;100.00;100925.41;5121354;27;45358;-61
2021/08/08 08:37:45;;;;;;;;;3.75;3.00;;;;;19.60;100.00;100932.66;5121562;27;45346;-59
2021/08/08 08:40:11;;;;;;;;;4.00;3.00;;;;;19.82;100.00;100929.81;5121628;27;45298;-61
2021/08/08 08:46:00;;;;;;;;;5.50;3.00;;;;;20.24;100.00;100941.84;5121397;27;45531;-70
2021/08/08 08:48:27;;;;;;;;;7.00;4.75;;;;;20.16;100.00;100948.41;5102948;27;45418;-70
2021/08/08 08:50:54;;;;;;;;;2.50;2.50;;;;;20.07;100.00;100954.16;5121764;27;45433;-70
2021/08/08 08:53:21;;;;;;;;;6.00;4.00;;;;;19.94;100.00;100952.22;5120968;27;47492;-70
2021/08/08 08:55:46;;;;;;;;;5.00;4.00;;;;;19.85;100.00;100941.13;5121033;27;45232;-70
2021/08/08 08:58:12;;;;;;;;;3.25;3.00;;;;;19.74;100.00;100946.09;5121450;27;45374;-69
2021/08/08 09:00:37;;;;;;;;;4.50;3.25;;;;;19.85;100.00;100954.38;5121374;27;45418;-71
2021/08/08 09:03:03;;;;;;;;;3.50;3.00;;;;;19.94;100.00;100944.25;5121239;27;46549;-71
2021/08/08 09:05:30;;;;;;;;;3.25;3.00;;;;;20.06;100.00;100957.75;5120747;27;45357;-71
2021/08/08 09:07:56;;;;;;;;;3.50;3.50;;;;;20.22;100.00;100954.34;5120898;27;45441;-70
2021/08/08 09:10:23;;;;;;;;;3.25;2.00;;;;;20.25;100.00;100943.56;5121275;27;45376;-70
2021/08/08 09:16:15;;;;;;;;;3.50;3.50;;;;;20.62;100.00;100953.16;5120008;27;45518;-71
2021/08/08 09:18:55;;;;;;;;;3.00;3.00;;;;;20.73;100.00;100950.78;5120833;27;45231;-70
2021/08/08 09:21:21;;;;;;;;;4.00;3.00;;;;;21.05;100.00;100957.91;5102456;27;45526;-70
2021/08/08 09:24:24;;;;;;;;;4.00;4.00;;;;;21.22;100.00;100949.00;5120594;27;46381;-70
2021/08/08 09:27:07;;;;;;;;;4.00;3.75;;;;;21.54;100.00;100957.88;5101007;27;45632;-69
2021/08/08 09:29:37;;;;;;;;;3.25;2.25;;;;;21.84;100.00;100971.22;5119289;27;45201;-70
2021/08/08 09:32:03;;;;;;;;;3.00;2.50;;;;;22.04;100.00;100963.88;5120791;27;45287;-69
2021/08/08 09:34:36;;;;;;;;;4.00;3.00;;;;;22.16;100.00;100961.38;5120571;27;45666;-69
2021/08/08 09:37:06;;;;;;;;;2.00;1.00;;;;;22.31;100.00;100963.13;5119882;27;45382;-70
2021/08/08 09:39:46;;;;;;;;;3.25;2.50;;;;;22.29;100.00;100969.50;5119999;27;45282;-72
2021/08/08 09:42:18;;;;;;;;;5.00;4.00;;;;;22.56;100.00;100967.84;5120087;27;45443;-73
2021/08/08 09:44:57;;;;;;;;;4.00;3.50;;;;;22.47;100.00;100940.94;5120019;27;45465;-69
2021/08/08 09:47:34;;;;;;;;;5.00;3.25;;;;;22.42;100.00;100964.31;5119823;27;45543;-68
2021/08/08 09:50:00;;;;;;;;;2.75;2.75;;;;;22.25;100.00;100958.19;5119807;27;45347;-72
2021/08/08 09:52:26;;;;;;;;;3.50;3.25;;;;;22.39;100.00;100975.97;5120523;27;45303;-69
2021/08/08 09:54:52;;;;;;;;;4.25;3.00;;;;;22.99;100.00;100965.25;5120113;27;46072;-69
2021/08/08 09:57:17;;;;;;;;;2.00;1.75;;;;;24.09;100.00;100974.13;5120537;27;45286;-70
2021/08/08 09:59:47;;;;;;;;;2.50;2.00;;;;;25.16;100.00;100972.97;5120325;27;45431;-70
2021/08/08 10:02:19;;;;;;;;;4.25;2.50;;;;;26.40;100.00;100967.34;5120346;27;45507;-69
2021/08/08 10:04:44;;;;;;;;;3.00;2.00;;;;;27.03;100.00;100970.50;5120334;27;46267;-69
2021/08/08 10:07:10;;;;;;;;;3.25;2.75;;;;;27.19;97.93;100971.00;5120024;27;45473;-68
2021/08/08 10:09:36;;;;;;;;;3.00;2.00;;;;;26.79;95.06;100976.78;5120271;27;45401;-70
2021/08/08 10:12:20;;;;;;;;;3.00;3.00;;;;;26.55;92.82;100976.88;5120198;27;45330;-69
2021/08/08 10:14:47;;;;;;;;;4.75;3.00;;;;;25.94;97.40;100992.22;5119918;27;45669;-68
2021/08/08 10:17:13;;;;;;;;;4.00;3.00;;;;;25.86;98.19;100978.56;5119626;27;45239;-68
2021/08/08 10:19:40;;;;;;;;;2.50;1.00;;;;;25.70;99.36;100990.50;5119747;27;45355;-68
2021/08/08 10:22:07;;;;;;;;;3.00;3.00;;;;;25.10;100.00;100985.91;5119225;27;45344;-69
2021/08/08 10:24:33;;;;;;;;;5.00;3.00;;;;;24.46;100.00;100988.56;5119224;27;47277;-68
2021/08/08 10:26:58;;;;;;;;;3.00;2.00;;;;;23.85;100.00;100995.28;5119308;27;45509;-69
2021/08/08 10:29:24;;;;;;;;;3.00;3.00;;;;;23.26;100.00;100991.94;5119301;27;45426;-68
2021/08/08 10:31:50;;;;;;;;;3.50;2.75;;;;;22.75;100.00;100999.53;5119544;27;45299;-71
2021/08/08 10:34:15;;;;;;;;;4.75;2.50;;;;;23.05;100.00;100995.94;5100682;27;46413;-67
2021/08/08 10:36:42;;;;;;;;;2.75;2.50;;;;;23.43;100.00;100997.06;5119204;27;45341;-69
2021/08/08 10:39:17;;;;;;;;;2.25;2.00;;;;;23.76;100.00;100998.53;5119566;27;45380;-67
2021/08/08 10:41:56;;;;;;;;;1.50;1.50;;;;;25.66;100.00;100995.19;5118996;27;45501;-68
2021/08/08 10:44:23;;;;;;;;;4.00;3.25;;;;;27.40;100.00;101000.59;5119121;27;46604;-69
2021/08/08 10:46:53;;;;;;;;;2.50;2.50;;;;;28.64;89.97;100977.69;5119042;27;45370;-69
2021/08/08 10:49:29;;;;;;;;;2.00;1.50;;;;;29.77;79.60;100986.53;5119240;27;45306;-68
2021/08/08 10:51:58;;;;;;;;;3.00;2.50;;;;;30.55;82.26;100972.03;5119128;27;45306;-67
2021/08/08 10:54:24;;;;;;;;;3.00;3.00;;;;;31.69;81.00;100979.00;5118682;27;46999;-71
2021/08/08 10:56:49;;;;;;;;;5.00;4.50;;;;;31.97;73.66;100969.84;5118897;27;45329;-68
2021/08/08 10:59:17;;;;;;;;;2.25;0.25;;;;;32.46;62.82;100962.16;5118609;27;45578;-68
2021/08/08 11:01:43;;;;;;;;;2.00;2.00;;;;;32.91;68.96;100977.34;5119319;27;45354;-69
2021/08/08 11:04:09;;;;;;;;;1.00;1.00;;;;;33.00;64.01;100964.69;5118501;27;45457;-67
2021/08/08 11:06:36;;;;;;;;;2.00;1.50;;;;;33.86;62.98;100989.75;5118526;27;45499;-67
2021/08/08 11:09:03;;;;;;;;;0.00;0.00;;;;;34.06;54.47;100979.44;5119314;27;45391;-67
2021/08/08 11:11:35;;;;;;;;;3.75;2.50;;;;;34.44;59.26;100974.38;5119478;27;45395;-67
2021/08/08 11:14:15;;;;;;;;;0.50;0.25;;;;;34.68;60.25;100985.19;5118773;27;45438;-67
2021/08/08 11:16:43;;;;;;;;;2.50;1.50;;;;;34.47;57.69;100985.72;5118765;27;45636;-67
2021/08/08 11:19:09;;;;;;;;;2.50;0.75;;;;;33.53;54.35;100979.81;5119128;27;45290;-66
2021/08/08 11:21:35;;;;;;;;;2.25;1.25;;;;;33.56;66.05;100977.63;5119093;27;45418;-68
2021/08/08 11:24:03;;;;;;;;;1.00;0.75;;;;;33.60;65.17;100981.69;5118763;27;46509;-68
2021/08/08 11:26:29;;;;;;;;;1.75;1.50;;;;;34.42;66.89;100981.84;5118643;27;45284;-67
2021/08/08 11:29:01;;;;;;;;;2.00;1.00;;;;;34.34;68.39;100980.81;5118780;27;45354;-66
2021/08/08 11:31:33;;;;;;;;;3.00;1.25;;;;;33.18;70.50;100989.81;5119045;27;45309;-67
2021/08/08 11:34:02;;;;;;;;;3.00;3.00;;;;;32.55;73.81;100980.13;5118864;27;45744;-67
2021/08/08 11:36:30;;;;;;;;;1.75;1.75;;;;;33.44;73.04;100965.41;5119001;27;45452;-67
2021/08/08 11:38:59;;;;;;;;;2.00;1.00;;;;;34.73;68.14;100985.50;5118677;27;45295;-67
2021/08/08 11:41:25;;;;;;;;;1.00;1.00;;;;;35.33;59.20;100986.88;5118614;27;45255;-67
2021/08/08 11:44:12;;;;;;;;;1.00;1.00;;;;;35.81;53.42;100991.19;5099796;27;46151;-67
2021/08/08 11:46:41;;;;;;;;;2.50;2.00;;;;;36.35;52.86;100993.88;5118516;27;45355;-68
2021/08/08 11:49:21;;;;;;;;;1.25;1.25;;;;;36.67;48.27;100982.69;5118430;27;45353;-68
2021/08/08 11:51:56;;;;;;;;;1.00;1.00;;;;;37.02;43.68;100992.00;5118681;27;45253;-68
2021/08/08 11:54:40;;;;;;;;;0.00;0.00;;;;;37.35;48.00;100989.78;5117818;27;47243;-67
2021/08/08 11:57:05;;;;;;;;;2.00;1.00;;;;;37.69;43.12;100997.28;5099838;27;45328;-67
2021/08/08 11:59:33;;;;;;;;;2.75;1.00;;;;;37.83;47.53;100983.84;5118824;27;45652;-69
2021/08/08 12:02:08;;;;;;;;;3.75;3.00;;;;;38.30;47.58;100980.53;5118442;27;45415;-68
2021/08/08 12:04:43;;;;;;;;;2.00;1.00;;;;;37.16;47.95;100973.16;5117989;27;46172;-67
2021/08/08 12:07:10;;;;;;;;;1.75;1.75;;;;;36.22;51.75;100982.75;5099296;27;45614;-67
2021/08/08 12:09:37;;;;;;;;;2.00;2.00;;;;;35.96;42.55;100983.97;5117760;27;45588;-66
2021/08/08 12:12:05;;;;;;;;;0.50;0.50;;;;;35.65;50.02;100983.13;5117888;27;45579;-67
2021/08/08 12:14:32;;;;;;;;;1.75;1.75;;;;;35.49;51.10;100990.34;5117663;27;45487;-67
2021/08/08 12:17:07;;;;;;;;;1.00;1.00;;;;;35.32;46.83;100967.00;5117512;27;45421;-67
2021/08/08 12:19:37;;;;;;;;;1.00;1.00;;;;;35.52;46.99;100991.88;5117881;27;45505;-66
2021/08/08 12:22:08;;;;;;;;;2.00;0.00;;;;;36.20;45.49;100991.91;5118292;27;45390;-67
2021/08/08 12:24:40;;;;;;;;;0.00;0.00;;;;;36.88;42.55;100983.84;5099359;27;46161;-66
2021/08/08 12:27:07;;;;;;;;;1.75;1.50;;;;;36.89;40.99;100985.53;5117906;27;45419;-67
2021/08/08 12:29:36;;;;;;;;;1.25;1.00;;;;;36.44;41.68;100990.06;5117596;27;45420;-67